This is the latest recevied weather packets stored in our database for station/object EA1EXV-11. If no packets are shown the sender has not sent any weather packets the latest 10 day(s).
| Time | Temp. | Humidity | Pressure | Rain* | Wind** | Luminosity | Snow |
|---|---|---|---|---|---|---|---|
| 1777509288 | 13.89° C | 72% | 1012.1 hPa | - | - | - | - |
| 1777508388 | 13.89° C | 71% | 1011.9 hPa | - | - | - | - |
| 1777507488 | 13.89° C | 71% | 1011.8 hPa | - | - | - | - |
| 1777506588 | 13.89° C | 70% | 1011.7 hPa | - | - | - | - |
| 1777505688 | 13.89° C | 70% | 1011.6 hPa | - | - | - | - |
| 1777504788 | 13.89° C | 70% | 1011.5 hPa | - | - | - | - |
| 1777503888 | 15° C | 69% | 1011.6 hPa | - | - | - | - |
| 1777502988 | 14.44° C | 69% | 1011.5 hPa | - | - | - | - |
| 1777502088 | 14.44° C | 69% | 1011.2 hPa | - | - | - | - |
| 1777501188 | 14.44° C | 68% | 1011.2 hPa | - | - | - | - |
| 1777500287 | 14.44° C | 68% | 1011.1 hPa | - | - | - | - |
| 1777499387 | 13.89° C | 68% | 1011 hPa | - | - | - | - |
| 1777498487 | 15° C | 67% | 1010.9 hPa | - | - | - | - |
| 1777497587 | 15° C | 67% | 1010.9 hPa | - | - | - | - |
| 1777496687 | 15° C | 67% | 1010.5 hPa | - | - | - | - |
| 1777495787 | 15° C | 66% | 1010.4 hPa | - | - | - | - |
| 1777494887 | 15° C | 66% | 1010.2 hPa | - | - | - | - |
| 1777493987 | 15° C | 65% | 1009.9 hPa | - | - | - | - |
| 1777493087 | 15° C | 65% | 1009.7 hPa | - | - | - | - |
| 1777492187 | 16.11° C | 63% | 1009.5 hPa | - | - | - | - |
| 1777491286 | 16.67° C | 62% | 1009.4 hPa | - | - | - | - |
| 1777490386 | 17.22° C | 61% | 1009.1 hPa | - | - | - | - |
| 1777489486 | 17.22° C | 61% | 1008.9 hPa | - | - | - | - |
| 1777488586 | 18.33° C | 60% | 1008.5 hPa | - | - | - | - |
| 1777475737 | 22.22° C | 47% | 1007 hPa | - | - | - | - |
* Rain since midnight (hover to see other rain measurements)
** Current wind speed in m/s (hover to see current wind gust speed)